sensor_id;sensor_type;location;lat;lon;timestamp;P1;durP1;ratioP1;P2;durP2;ratioP2
56399;SDS011;42298;53.638;9.876;2023-06-22T00:01:03;7.50;;;4.10;;
56399;SDS011;42298;53.638;9.876;2023-06-22T00:03:29;7.70;;;4.05;;
56399;SDS011;42298;53.638;9.876;2023-06-22T00:05:54;7.05;;;3.90;;
56399;SDS011;42298;53.638;9.876;2023-06-22T00:08:19;6.20;;;3.40;;
56399;SDS011;42298;53.638;9.876;2023-06-22T00:10:45;5.95;;;3.35;;
56399;SDS011;42298;53.638;9.876;2023-06-22T00:13:11;7.30;;;4.05;;
56399;SDS011;42298;53.638;9.876;2023-06-22T00:15:38;7.40;;;4.20;;
56399;SDS011;42298;53.638;9.876;2023-06-22T00:18:07;8.68;;;4.35;;
56399;SDS011;42298;53.638;9.876;2023-06-22T00:20:34;6.57;;;3.53;;
56399;SDS011;42298;53.638;9.876;2023-06-22T00:23:01;6.57;;;3.67;;
56399;SDS011;42298;53.638;9.876;2023-06-22T00:25:31;9.07;;;3.92;;
56399;SDS011;42298;53.638;9.876;2023-06-22T00:27:58;7.30;;;4.25;;
56399;SDS011;42298;53.638;9.876;2023-06-22T00:30:23;10.32;;;4.55;;
56399;SDS011;42298;53.638;9.876;2023-06-22T00:32:49;9.85;;;4.65;;
56399;SDS011;42298;53.638;9.876;2023-06-22T00:35:14;9.68;;;4.70;;
56399;SDS011;42298;53.638;9.876;2023-06-22T00:37:39;10.05;;;4.32;;
56399;SDS011;42298;53.638;9.876;2023-06-22T00:40:07;9.07;;;4.57;;
56399;SDS011;42298;53.638;9.876;2023-06-22T00:42:37;9.13;;;4.43;;
56399;SDS011;42298;53.638;9.876;2023-06-22T00:45:05;9.50;;;4.22;;
56399;SDS011;42298;53.638;9.876;2023-06-22T00:47:32;8.25;;;4.28;;
56399;SDS011;42298;53.638;9.876;2023-06-22T00:50:00;7.80;;;4.20;;
56399;SDS011;42298;53.638;9.876;2023-06-22T00:52:26;8.77;;;4.82;;
56399;SDS011;42298;53.638;9.876;2023-06-22T00:54:54;6.95;;;4.20;;
56399;SDS011;42298;53.638;9.876;2023-06-22T00:57:23;8.82;;;4.47;;
56399;SDS011;42298;53.638;9.876;2023-06-22T00:59:52;7.05;;;4.07;;
56399;SDS011;42298;53.638;9.876;2023-06-22T01:02:18;9.32;;;4.50;;
56399;SDS011;42298;53.638;9.876;2023-06-22T01:04:44;7.57;;;4.32;;
56399;SDS011;42298;53.638;9.876;2023-06-22T01:07:27;8.52;;;4.22;;
56399;SDS011;42298;53.638;9.876;2023-06-22T01:10:14;8.77;;;4.38;;
56399;SDS011;42298;53.638;9.876;2023-06-22T01:12:56;9.20;;;4.32;;
56399;SDS011;42298;53.638;9.876;2023-06-22T01:18:30;6.72;;;3.70;;
56399;SDS011;42298;53.638;9.876;2023-06-22T01:21:01;6.57;;;3.80;;
56399;SDS011;42298;53.638;9.876;2023-06-22T01:23:41;7.82;;;3.92;;
56399;SDS011;42298;53.638;9.876;2023-06-22T01:28:59;8.05;;;4.45;;
56399;SDS011;42298;53.638;9.876;2023-06-22T01:31:28;8.00;;;4.35;;
56399;SDS011;42298;53.638;9.876;2023-06-22T01:33:59;6.72;;;4.03;;
56399;SDS011;42298;53.638;9.876;2023-06-22T01:36:27;7.45;;;4.05;;
56399;SDS011;42298;53.638;9.876;2023-06-22T01:38:57;8.10;;;4.20;;
56399;SDS011;42298;53.638;9.876;2023-06-22T01:41:25;8.38;;;4.10;;
56399;SDS011;42298;53.638;9.876;2023-06-22T01:43:51;8.38;;;4.15;;
56399;SDS011;42298;53.638;9.876;2023-06-22T01:46:18;7.03;;;4.13;;
56399;SDS011;42298;53.638;9.876;2023-06-22T01:48:47;5.82;;;3.70;;
56399;SDS011;42298;53.638;9.876;2023-06-22T01:51:13;8.18;;;4.63;;
56399;SDS011;42298;53.638;9.876;2023-06-22T01:53:39;9.05;;;4.75;;
56399;SDS011;42298;53.638;9.876;2023-06-22T01:56:04;7.88;;;4.78;;
56399;SDS011;42298;53.638;9.876;2023-06-22T01:58:30;6.68;;;4.15;;
56399;SDS011;42298;53.638;9.876;2023-06-22T02:00:58;7.70;;;4.15;;
56399;SDS011;42298;53.638;9.876;2023-06-22T02:03:37;8.40;;;4.10;;
56399;SDS011;42298;53.638;9.876;2023-06-22T02:06:07;9.88;;;4.80;;
56399;SDS011;42298;53.638;9.876;2023-06-22T02:08:40;10.32;;;5.28;;
56399;SDS011;42298;53.638;9.876;2023-06-22T02:11:07;8.50;;;4.57;;
56399;SDS011;42298;53.638;9.876;2023-06-22T02:13:36;7.82;;;4.20;;
56399;SDS011;42298;53.638;9.876;2023-06-22T02:16:01;7.53;;;4.10;;
56399;SDS011;42298;53.638;9.876;2023-06-22T02:18:27;7.55;;;4.50;;
56399;SDS011;42298;53.638;9.876;2023-06-22T02:20:53;7.72;;;4.78;;
56399;SDS011;42298;53.638;9.876;2023-06-22T02:23:18;8.10;;;4.13;;
56399;SDS011;42298;53.638;9.876;2023-06-22T02:25:44;8.32;;;4.65;;
56399;SDS011;42298;53.638;9.876;2023-06-22T02:28:10;7.82;;;4.68;;
56399;SDS011;42298;53.638;9.876;2023-06-22T02:30:35;7.88;;;4.57;;
56399;SDS011;42298;53.638;9.876;2023-06-22T02:33:01;7.50;;;4.40;;
56399;SDS011;42298;53.638;9.876;2023-06-22T02:35:28;9.30;;;4.97;;
56399;SDS011;42298;53.638;9.876;2023-06-22T02:38:01;9.57;;;5.03;;
56399;SDS011;42298;53.638;9.876;2023-06-22T02:40:28;9.27;;;4.82;;
56399;SDS011;42298;53.638;9.876;2023-06-22T02:42:54;8.38;;;4.78;;
56399;SDS011;42298;53.638;9.876;2023-06-22T02:45:20;6.30;;;3.97;;
56399;SDS011;42298;53.638;9.876;2023-06-22T02:47:45;9.10;;;5.03;;
56399;SDS011;42298;53.638;9.876;2023-06-22T02:50:12;7.78;;;4.40;;
56399;SDS011;42298;53.638;9.876;2023-06-22T02:52:38;7.93;;;4.40;;
56399;SDS011;42298;53.638;9.876;2023-06-22T02:55:04;8.27;;;4.60;;
56399;SDS011;42298;53.638;9.876;2023-06-22T02:57:30;8.93;;;4.40;;
56399;SDS011;42298;53.638;9.876;2023-06-22T02:59:55;7.90;;;4.35;;
56399;SDS011;42298;53.638;9.876;2023-06-22T03:02:21;11.05;;;5.50;;
56399;SDS011;42298;53.638;9.876;2023-06-22T03:04:47;11.00;;;6.45;;
56399;SDS011;42298;53.638;9.876;2023-06-22T03:07:14;10.02;;;5.22;;
56399;SDS011;42298;53.638;9.876;2023-06-22T03:09:39;9.65;;;5.43;;
56399;SDS011;42298;53.638;9.876;2023-06-22T03:12:04;8.68;;;4.57;;
56399;SDS011;42298;53.638;9.876;2023-06-22T03:14:31;9.75;;;6.05;;
56399;SDS011;42298;53.638;9.876;2023-06-22T03:16:57;8.88;;;5.05;;
56399;SDS011;42298;53.638;9.876;2023-06-22T03:19:26;10.15;;;6.07;;
56399;SDS011;42298;53.638;9.876;2023-06-22T03:21:54;10.68;;;7.03;;
56399;SDS011;42298;53.638;9.876;2023-06-22T03:24:19;11.65;;;7.10;;
56399;SDS011;42298;53.638;9.876;2023-06-22T03:26:45;9.32;;;5.65;;
56399;SDS011;42298;53.638;9.876;2023-06-22T03:29:12;9.35;;;5.75;;
56399;SDS011;42298;53.638;9.876;2023-06-22T03:31:39;10.43;;;6.07;;
56399;SDS011;42298;53.638;9.876;2023-06-22T03:34:04;11.57;;;6.82;;
56399;SDS011;42298;53.638;9.876;2023-06-22T03:36:30;9.40;;;5.78;;
56399;SDS011;42298;53.638;9.876;2023-06-22T03:38:55;10.35;;;5.97;;
56399;SDS011;42298;53.638;9.876;2023-06-22T03:41:20;7.70;;;4.82;;
56399;SDS011;42298;53.638;9.876;2023-06-22T03:43:46;9.48;;;5.55;;
56399;SDS011;42298;53.638;9.876;2023-06-22T03:46:11;10.05;;;5.78;;
56399;SDS011;42298;53.638;9.876;2023-06-22T03:48:38;10.63;;;6.53;;
56399;SDS011;42298;53.638;9.876;2023-06-22T03:51:03;11.35;;;6.50;;
56399;SDS011;42298;53.638;9.876;2023-06-22T03:53:29;11.48;;;6.70;;
56399;SDS011;42298;53.638;9.876;2023-06-22T03:55:55;10.70;;;6.40;;
56399;SDS011;42298;53.638;9.876;2023-06-22T03:58:21;9.75;;;6.05;;
56399;SDS011;42298;53.638;9.876;2023-06-22T04:00:46;10.02;;;6.35;;
56399;SDS011;42298;53.638;9.876;2023-06-22T04:03:13;11.77;;;6.40;;
56399;SDS011;42298;53.638;9.876;2023-06-22T04:05:39;11.07;;;6.78;;
56399;SDS011;42298;53.638;9.876;2023-06-22T04:08:05;13.32;;;8.45;;
56399;SDS011;42298;53.638;9.876;2023-06-22T04:10:30;11.95;;;7.65;;
56399;SDS011;42298;53.638;9.876;2023-06-22T04:12:55;13.18;;;7.85;;
56399;SDS011;42298;53.638;9.876;2023-06-22T04:15:21;12.95;;;7.95;;
56399;SDS011;42298;53.638;9.876;2023-06-22T04:17:46;13.40;;;9.02;;
56399;SDS011;42298;53.638;9.876;2023-06-22T04:20:12;12.23;;;6.90;;
56399;SDS011;42298;53.638;9.876;2023-06-22T04:22:37;13.25;;;8.90;;
56399;SDS011;42298;53.638;9.876;2023-06-22T04:25:02;14.45;;;7.68;;
56399;SDS011;42298;53.638;9.876;2023-06-22T04:27:28;13.07;;;8.05;;
56399;SDS011;42298;53.638;9.876;2023-06-22T04:29:53;13.10;;;7.40;;
56399;SDS011;42298;53.638;9.876;2023-06-22T04:32:21;12.75;;;7.50;;
56399;SDS011;42298;53.638;9.876;2023-06-22T04:34:47;11.85;;;7.25;;
56399;SDS011;42298;53.638;9.876;2023-06-22T04:37:12;12.32;;;7.97;;
56399;SDS011;42298;53.638;9.876;2023-06-22T04:39:40;11.18;;;7.07;;
56399;SDS011;42298;53.638;9.876;2023-06-22T04:42:07;13.18;;;8.18;;
56399;SDS011;42298;53.638;9.876;2023-06-22T04:44:32;12.60;;;7.20;;
56399;SDS011;42298;53.638;9.876;2023-06-22T04:46:58;10.98;;;7.25;;
56399;SDS011;42298;53.638;9.876;2023-06-22T04:49:30;15.15;;;9.52;;
56399;SDS011;42298;53.638;9.876;2023-06-22T04:52:00;11.35;;;7.93;;
56399;SDS011;42298;53.638;9.876;2023-06-22T04:54:28;15.00;;;8.68;;
56399;SDS011;42298;53.638;9.876;2023-06-22T04:56:53;13.52;;;7.55;;
56399;SDS011;42298;53.638;9.876;2023-06-22T04:59:22;11.85;;;7.30;;
56399;SDS011;42298;53.638;9.876;2023-06-22T05:01:52;11.55;;;6.60;;
56399;SDS011;42298;53.638;9.876;2023-06-22T05:04:18;11.73;;;7.43;;
56399;SDS011;42298;53.638;9.876;2023-06-22T05:06:45;11.77;;;7.20;;
56399;SDS011;42298;53.638;9.876;2023-06-22T05:09:10;12.52;;;7.72;;
56399;SDS011;42298;53.638;9.876;2023-06-22T05:11:37;15.65;;;7.78;;
56399;SDS011;42298;53.638;9.876;2023-06-22T05:14:02;11.63;;;6.72;;
56399;SDS011;42298;53.638;9.876;2023-06-22T05:16:28;10.05;;;6.32;;
56399;SDS011;42298;53.638;9.876;2023-06-22T05:18:53;12.13;;;6.70;;
56399;SDS011;42298;53.638;9.876;2023-06-22T05:21:23;13.25;;;7.70;;
56399;SDS011;42298;53.638;9.876;2023-06-22T05:23:49;12.93;;;6.97;;
56399;SDS011;42298;53.638;9.876;2023-06-22T05:26:15;12.32;;;6.72;;
56399;SDS011;42298;53.638;9.876;2023-06-22T05:28:40;10.63;;;5.95;;
56399;SDS011;42298;53.638;9.876;2023-06-22T05:31:06;9.07;;;5.32;;
56399;SDS011;42298;53.638;9.876;2023-06-22T05:33:32;10.68;;;5.20;;
56399;SDS011;42298;53.638;9.876;2023-06-22T05:35:58;10.18;;;5.55;;
56399;SDS011;42298;53.638;9.876;2023-06-22T05:38:23;11.25;;;5.50;;
56399;SDS011;42298;53.638;9.876;2023-06-22T05:40:48;11.30;;;4.95;;
56399;SDS011;42298;53.638;9.876;2023-06-22T05:43:13;10.00;;;5.05;;
56399;SDS011;42298;53.638;9.876;2023-06-22T05:45:39;10.40;;;4.93;;
56399;SDS011;42298;53.638;9.876;2023-06-22T05:48:04;10.70;;;4.65;;
56399;SDS011;42298;53.638;9.876;2023-06-22T05:50:30;9.73;;;4.10;;
56399;SDS011;42298;53.638;9.876;2023-06-22T05:52:55;8.80;;;4.35;;
56399;SDS011;42298;53.638;9.876;2023-06-22T05:55:20;10.02;;;4.82;;
56399;SDS011;42298;53.638;9.876;2023-06-22T05:57:46;7.57;;;4.15;;
56399;SDS011;42298;53.638;9.876;2023-06-22T06:00:11;10.05;;;4.40;;
56399;SDS011;42298;53.638;9.876;2023-06-22T06:02:38;7.53;;;3.90;;
56399;SDS011;42298;53.638;9.876;2023-06-22T06:05:10;8.40;;;4.35;;
56399;SDS011;42298;53.638;9.876;2023-06-22T06:07:37;8.55;;;4.40;;
56399;SDS011;42298;53.638;9.876;2023-06-22T06:10:04;7.32;;;3.65;;
56399;SDS011;42298;53.638;9.876;2023-06-22T06:12:31;8.75;;;4.35;;
56399;SDS011;42298;53.638;9.876;2023-06-22T06:14:56;7.15;;;3.70;;
56399;SDS011;42298;53.638;9.876;2023-06-22T06:17:21;10.02;;;4.65;;
56399;SDS011;42298;53.638;9.876;2023-06-22T06:19:48;8.57;;;4.13;;
56399;SDS011;42298;53.638;9.876;2023-06-22T06:22:13;8.63;;;4.63;;
56399;SDS011;42298;53.638;9.876;2023-06-22T06:24:38;7.30;;;3.88;;
56399;SDS011;42298;53.638;9.876;2023-06-22T06:27:04;7.68;;;4.32;;
56399;SDS011;42298;53.638;9.876;2023-06-22T06:29:30;6.50;;;3.17;;
56399;SDS011;42298;53.638;9.876;2023-06-22T06:31:55;4.35;;;2.88;;
56399;SDS011;42298;53.638;9.876;2023-06-22T06:34:21;5.47;;;3.03;;
56399;SDS011;42298;53.638;9.876;2023-06-22T06:36:47;5.90;;;2.72;;
56399;SDS011;42298;53.638;9.876;2023-06-22T06:39:12;6.22;;;2.97;;
56399;SDS011;42298;53.638;9.876;2023-06-22T06:41:37;4.82;;;2.83;;
56399;SDS011;42298;53.638;9.876;2023-06-22T06:44:03;5.03;;;2.72;;
56399;SDS011;42298;53.638;9.876;2023-06-22T06:46:28;4.38;;;2.70;;
56399;SDS011;42298;53.638;9.876;2023-06-22T06:48:53;4.47;;;2.75;;
56399;SDS011;42298;53.638;9.876;2023-06-22T06:51:18;7.68;;;3.08;;
56399;SDS011;42298;53.638;9.876;2023-06-22T06:53:44;5.18;;;2.70;;
56399;SDS011;42298;53.638;9.876;2023-06-22T06:56:09;6.28;;;2.92;;
56399;SDS011;42298;53.638;9.876;2023-06-22T06:58:35;5.95;;;3.15;;
56399;SDS011;42298;53.638;9.876;2023-06-22T07:01:01;6.57;;;3.25;;
56399;SDS011;42298;53.638;9.876;2023-06-22T07:03:28;7.68;;;3.30;;
56399;SDS011;42298;53.638;9.876;2023-06-22T07:05:53;5.32;;;2.80;;
56399;SDS011;42298;53.638;9.876;2023-06-22T07:08:18;5.03;;;2.97;;
56399;SDS011;42298;53.638;9.876;2023-06-22T07:10:44;6.55;;;2.95;;
56399;SDS011;42298;53.638;9.876;2023-06-22T07:13:09;4.53;;;3.00;;
56399;SDS011;42298;53.638;9.876;2023-06-22T07:15:35;5.90;;;2.90;;
56399;SDS011;42298;53.638;9.876;2023-06-22T07:18:00;6.53;;;3.20;;
56399;SDS011;42298;53.638;9.876;2023-06-22T07:20:25;8.55;;;4.03;;
56399;SDS011;42298;53.638;9.876;2023-06-22T07:22:51;6.55;;;3.13;;
56399;SDS011;42298;53.638;9.876;2023-06-22T07:25:16;5.90;;;2.97;;
56399;SDS011;42298;53.638;9.876;2023-06-22T07:30:23;5.13;;;3.35;;
56399;SDS011;42298;53.638;9.876;2023-06-22T07:32:48;7.38;;;3.67;;
56399;SDS011;42298;53.638;9.876;2023-06-22T07:35:14;6.57;;;3.28;;
56399;SDS011;42298;53.638;9.876;2023-06-22T07:37:41;6.65;;;3.50;;
56399;SDS011;42298;53.638;9.876;2023-06-22T07:40:07;5.40;;;2.88;;
56399;SDS011;42298;53.638;9.876;2023-06-22T07:42:33;4.68;;;2.67;;
56399;SDS011;42298;53.638;9.876;2023-06-22T07:44:58;5.25;;;3.00;;
56399;SDS011;42298;53.638;9.876;2023-06-22T07:47:23;6.57;;;3.10;;
56399;SDS011;42298;53.638;9.876;2023-06-22T07:49:51;7.22;;;3.38;;
56399;SDS011;42298;53.638;9.876;2023-06-22T07:52:17;5.57;;;3.30;;
56399;SDS011;42298;53.638;9.876;2023-06-22T07:54:42;6.22;;;2.90;;
56399;SDS011;42298;53.638;9.876;2023-06-22T07:57:07;5.10;;;2.60;;
56399;SDS011;42298;53.638;9.876;2023-06-22T07:59:33;7.38;;;3.15;;
56399;SDS011;42298;53.638;9.876;2023-06-22T08:01:58;7.20;;;2.92;;
56399;SDS011;42298;53.638;9.876;2023-06-22T08:04:23;5.25;;;2.63;;
56399;SDS011;42298;53.638;9.876;2023-06-22T08:06:48;4.65;;;2.90;;
56399;SDS011;42298;53.638;9.876;2023-06-22T08:09:14;5.35;;;3.20;;
56399;SDS011;42298;53.638;9.876;2023-06-22T08:11:40;7.22;;;2.80;;
56399;SDS011;42298;53.638;9.876;2023-06-22T08:14:06;5.85;;;3.03;;
56399;SDS011;42298;53.638;9.876;2023-06-22T08:16:31;7.85;;;2.95;;
56399;SDS011;42298;53.638;9.876;2023-06-22T08:18:56;6.32;;;2.90;;
56399;SDS011;42298;53.638;9.876;2023-06-22T08:21:22;7.53;;;3.05;;
56399;SDS011;42298;53.638;9.876;2023-06-22T08:23:47;4.47;;;2.70;;
56399;SDS011;42298;53.638;9.876;2023-06-22T08:26:13;6.13;;;2.80;;
56399;SDS011;42298;53.638;9.876;2023-06-22T08:28:39;6.38;;;3.10;;
56399;SDS011;42298;53.638;9.876;2023-06-22T08:31:04;5.70;;;3.15;;
56399;SDS011;42298;53.638;9.876;2023-06-22T08:33:30;7.70;;;2.95;;
56399;SDS011;42298;53.638;9.876;2023-06-22T08:35:56;5.68;;;2.80;;
56399;SDS011;42298;53.638;9.876;2023-06-22T08:38:21;4.63;;;2.63;;
56399;SDS011;42298;53.638;9.876;2023-06-22T08:40:47;6.75;;;2.80;;
56399;SDS011;42298;53.638;9.876;2023-06-22T08:43:12;5.28;;;2.60;;
56399;SDS011;42298;53.638;9.876;2023-06-22T08:45:38;5.38;;;2.90;;
56399;SDS011;42298;53.638;9.876;2023-06-22T08:48:03;5.90;;;2.70;;
56399;SDS011;42298;53.638;9.876;2023-06-22T08:50:28;6.00;;;2.67;;
56399;SDS011;42298;53.638;9.876;2023-06-22T08:52:54;6.18;;;2.80;;
56399;SDS011;42298;53.638;9.876;2023-06-22T08:55:19;6.38;;;2.50;;
56399;SDS011;42298;53.638;9.876;2023-06-22T08:57:44;6.43;;;2.60;;
56399;SDS011;42298;53.638;9.876;2023-06-22T09:00:09;4.55;;;2.67;;
56399;SDS011;42298;53.638;9.876;2023-06-22T09:02:45;5.90;;;2.90;;
56399;SDS011;42298;53.638;9.876;2023-06-22T09:05:11;5.85;;;2.78;;
56399;SDS011;42298;53.638;9.876;2023-06-22T09:07:36;4.03;;;2.42;;
56399;SDS011;42298;53.638;9.876;2023-06-22T09:10:02;7.82;;;3.05;;
56399;SDS011;42298;53.638;9.876;2023-06-22T09:12:29;4.30;;;2.28;;
56399;SDS011;42298;53.638;9.876;2023-06-22T09:14:55;5.25;;;2.80;;
56399;SDS011;42298;53.638;9.876;2023-06-22T09:17:21;3.83;;;2.30;;
56399;SDS011;42298;53.638;9.876;2023-06-22T09:19:47;4.75;;;2.70;;
56399;SDS011;42298;53.638;9.876;2023-06-22T09:22:13;5.47;;;2.75;;
56399;SDS011;42298;53.638;9.876;2023-06-22T09:24:39;7.45;;;3.10;;
56399;SDS011;42298;53.638;9.876;2023-06-22T09:27:04;5.57;;;3.00;;
56399;SDS011;42298;53.638;9.876;2023-06-22T09:29:30;7.57;;;2.97;;
56399;SDS011;42298;53.638;9.876;2023-06-22T09:31:58;6.25;;;3.10;;
56399;SDS011;42298;53.638;9.876;2023-06-22T09:34:23;4.50;;;2.95;;
56399;SDS011;42298;53.638;9.876;2023-06-22T09:36:48;5.40;;;2.50;;
56399;SDS011;42298;53.638;9.876;2023-06-22T09:39:14;7.35;;;3.55;;
56399;SDS011;42298;53.638;9.876;2023-06-22T09:41:40;6.05;;;3.33;;
56399;SDS011;42298;53.638;9.876;2023-06-22T09:44:05;7.03;;;2.92;;
56399;SDS011;42298;53.638;9.876;2023-06-22T09:46:31;7.90;;;3.95;;
56399;SDS011;42298;53.638;9.876;2023-06-22T09:48:56;6.35;;;3.47;;
56399;SDS011;42298;53.638;9.876;2023-06-22T09:51:22;5.38;;;2.70;;
56399;SDS011;42298;53.638;9.876;2023-06-22T09:53:48;5.63;;;3.15;;
56399;SDS011;42298;53.638;9.876;2023-06-22T09:56:14;6.28;;;3.25;;
56399;SDS011;42298;53.638;9.876;2023-06-22T09:58:43;7.30;;;2.83;;
56399;SDS011;42298;53.638;9.876;2023-06-22T10:01:09;5.85;;;3.05;;
56399;SDS011;42298;53.638;9.876;2023-06-22T10:03:35;4.32;;;2.80;;
56399;SDS011;42298;53.638;9.876;2023-06-22T10:06:01;7.13;;;4.20;;
56399;SDS011;42298;53.638;9.876;2023-06-22T10:08:26;7.13;;;3.53;;
56399;SDS011;42298;53.638;9.876;2023-06-22T10:10:53;6.35;;;3.47;;
56399;SDS011;42298;53.638;9.876;2023-06-22T10:13:19;9.05;;;3.78;;
56399;SDS011;42298;53.638;9.876;2023-06-22T10:15:45;9.25;;;3.95;;
56399;SDS011;42298;53.638;9.876;2023-06-22T10:18:14;6.68;;;3.28;;
56399;SDS011;42298;53.638;9.876;2023-06-22T10:20:41;5.13;;;3.20;;
56399;SDS011;42298;53.638;9.876;2023-06-22T10:23:06;7.43;;;3.90;;
56399;SDS011;42298;53.638;9.876;2023-06-22T10:25:31;7.15;;;3.28;;
56399;SDS011;42298;53.638;9.876;2023-06-22T10:27:56;7.20;;;3.38;;
56399;SDS011;42298;53.638;9.876;2023-06-22T10:30:22;5.25;;;3.10;;
56399;SDS011;42298;53.638;9.876;2023-06-22T10:32:48;5.57;;;3.55;;
56399;SDS011;42298;53.638;9.876;2023-06-22T10:35:15;5.95;;;3.55;;
56399;SDS011;42298;53.638;9.876;2023-06-22T10:37:44;6.85;;;3.83;;
56399;SDS011;42298;53.638;9.876;2023-06-22T10:40:11;7.78;;;3.58;;
56399;SDS011;42298;53.638;9.876;2023-06-22T10:42:38;8.05;;;3.50;;
56399;SDS011;42298;53.638;9.876;2023-06-22T10:45:03;8.05;;;3.47;;
56399;SDS011;42298;53.638;9.876;2023-06-22T10:47:29;6.65;;;3.42;;
56399;SDS011;42298;53.638;9.876;2023-06-22T10:49:54;8.85;;;3.90;;
56399;SDS011;42298;53.638;9.876;2023-06-22T10:52:19;6.90;;;3.42;;
56399;SDS011;42298;53.638;9.876;2023-06-22T10:54:45;7.07;;;3.60;;
56399;SDS011;42298;53.638;9.876;2023-06-22T10:57:10;6.65;;;3.35;;
56399;SDS011;42298;53.638;9.876;2023-06-22T10:59:35;6.80;;;3.50;;
56399;SDS011;42298;53.638;9.876;2023-06-22T11:02:01;7.25;;;4.10;;
56399;SDS011;42298;53.638;9.876;2023-06-22T11:04:27;6.40;;;3.35;;
56399;SDS011;42298;53.638;9.876;2023-06-22T11:06:52;7.38;;;2.88;;
56399;SDS011;42298;53.638;9.876;2023-06-22T11:09:17;7.70;;;3.65;;
56399;SDS011;42298;53.638;9.876;2023-06-22T11:11:45;6.15;;;3.78;;
56399;SDS011;42298;53.638;9.876;2023-06-22T11:14:15;6.53;;;3.47;;
56399;SDS011;42298;53.638;9.876;2023-06-22T11:16:40;6.95;;;3.60;;
56399;SDS011;42298;53.638;9.876;2023-06-22T11:19:06;7.32;;;3.67;;
56399;SDS011;42298;53.638;9.876;2023-06-22T11:21:31;4.95;;;3.30;;
56399;SDS011;42298;53.638;9.876;2023-06-22T11:23:57;4.95;;;3.00;;
56399;SDS011;42298;53.638;9.876;2023-06-22T11:26:24;6.05;;;3.70;;
56399;SDS011;42298;53.638;9.876;2023-06-22T11:28:50;6.28;;;3.42;;
56399;SDS011;42298;53.638;9.876;2023-06-22T11:31:15;6.65;;;3.30;;
56399;SDS011;42298;53.638;9.876;2023-06-22T11:33:41;6.50;;;3.22;;
56399;SDS011;42298;53.638;9.876;2023-06-22T11:36:07;7.10;;;3.80;;
56399;SDS011;42298;53.638;9.876;2023-06-22T11:38:34;5.65;;;3.42;;
56399;SDS011;42298;53.638;9.876;2023-06-22T11:41:01;8.10;;;3.95;;
56399;SDS011;42298;53.638;9.876;2023-06-22T11:43:26;7.85;;;4.20;;
56399;SDS011;42298;53.638;9.876;2023-06-22T11:45:52;5.80;;;3.33;;
56399;SDS011;42298;53.638;9.876;2023-06-22T11:48:17;4.80;;;3.17;;
56399;SDS011;42298;53.638;9.876;2023-06-22T11:50:42;6.63;;;3.65;;
56399;SDS011;42298;53.638;9.876;2023-06-22T11:53:08;8.50;;;3.90;;
56399;SDS011;42298;53.638;9.876;2023-06-22T11:55:33;6.88;;;4.00;;
56399;SDS011;42298;53.638;9.876;2023-06-22T11:57:58;6.45;;;3.35;;
56399;SDS011;42298;53.638;9.876;2023-06-22T12:00:27;7.82;;;4.07;;
56399;SDS011;42298;53.638;9.876;2023-06-22T12:02:52;8.82;;;4.03;;
56399;SDS011;42298;53.638;9.876;2023-06-22T12:05:19;6.72;;;3.95;;
56399;SDS011;42298;53.638;9.876;2023-06-22T12:07:49;7.22;;;4.10;;
56399;SDS011;42298;53.638;9.876;2023-06-22T12:10:14;7.55;;;3.90;;
56399;SDS011;42298;53.638;9.876;2023-06-22T12:12:41;6.65;;;3.45;;
56399;SDS011;42298;53.638;9.876;2023-06-22T12:15:08;6.50;;;3.53;;
56399;SDS011;42298;53.638;9.876;2023-06-22T12:17:34;6.15;;;3.88;;
56399;SDS011;42298;53.638;9.876;2023-06-22T12:19:59;7.13;;;3.83;;
56399;SDS011;42298;53.638;9.876;2023-06-22T12:22:25;8.57;;;4.15;;
56399;SDS011;42298;53.638;9.876;2023-06-22T12:24:51;7.40;;;4.40;;
56399;SDS011;42298;53.638;9.876;2023-06-22T12:27:17;6.93;;;4.20;;
56399;SDS011;42298;53.638;9.876;2023-06-22T12:29:46;5.55;;;3.70;;
56399;SDS011;42298;53.638;9.876;2023-06-22T12:32:11;5.47;;;3.90;;
56399;SDS011;42298;53.638;9.876;2023-06-22T12:34:38;8.07;;;4.32;;
56399;SDS011;42298;53.638;9.876;2023-06-22T12:37:04;8.25;;;4.50;;
56399;SDS011;42298;53.638;9.876;2023-06-22T12:39:30;7.47;;;3.95;;
56399;SDS011;42298;53.638;9.876;2023-06-22T12:41:56;5.93;;;3.90;;
56399;SDS011;42298;53.638;9.876;2023-06-22T12:44:22;7.45;;;4.57;;
56399;SDS011;42298;53.638;9.876;2023-06-22T12:46:47;6.93;;;4.20;;
56399;SDS011;42298;53.638;9.876;2023-06-22T12:49:14;5.85;;;3.72;;
56399;SDS011;42298;53.638;9.876;2023-06-22T12:51:40;8.38;;;4.15;;
56399;SDS011;42298;53.638;9.876;2023-06-22T12:54:07;6.50;;;3.50;;
56399;SDS011;42298;53.638;9.876;2023-06-22T12:56:33;9.05;;;4.57;;
56399;SDS011;42298;53.638;9.876;2023-06-22T12:58:58;5.03;;;3.47;;
56399;SDS011;42298;53.638;9.876;2023-06-22T13:01:26;7.32;;;4.07;;
56399;SDS011;42298;53.638;9.876;2023-06-22T13:03:52;7.10;;;4.32;;
56399;SDS011;42298;53.638;9.876;2023-06-22T13:06:17;8.13;;;4.53;;
56399;SDS011;42298;53.638;9.876;2023-06-22T13:08:42;10.57;;;4.38;;
56399;SDS011;42298;53.638;9.876;2023-06-22T13:11:08;7.32;;;4.22;;
56399;SDS011;42298;53.638;9.876;2023-06-22T13:13:33;9.25;;;4.55;;
56399;SDS011;42298;53.638;9.876;2023-06-22T13:15:59;7.95;;;4.30;;
56399;SDS011;42298;53.638;9.876;2023-06-22T13:18:24;7.05;;;4.10;;
56399;SDS011;42298;53.638;9.876;2023-06-22T13:20:49;6.97;;;4.25;;
56399;SDS011;42298;53.638;9.876;2023-06-22T13:23:14;7.68;;;4.20;;
56399;SDS011;42298;53.638;9.876;2023-06-22T13:25:40;7.18;;;4.15;;
56399;SDS011;42298;53.638;9.876;2023-06-22T13:28:05;7.32;;;4.25;;
56399;SDS011;42298;53.638;9.876;2023-06-22T13:30:30;7.45;;;4.18;;
56399;SDS011;42298;53.638;9.876;2023-06-22T13:32:56;6.15;;;4.22;;
56399;SDS011;42298;53.638;9.876;2023-06-22T13:35:22;6.05;;;4.20;;
56399;SDS011;42298;53.638;9.876;2023-06-22T13:37:47;7.07;;;4.68;;
56399;SDS011;42298;53.638;9.876;2023-06-22T13:40:12;8.23;;;4.65;;
56399;SDS011;42298;53.638;9.876;2023-06-22T13:42:38;7.40;;;4.50;;
56399;SDS011;42298;53.638;9.876;2023-06-22T13:45:03;6.20;;;4.35;;
56399;SDS011;42298;53.638;9.876;2023-06-22T13:47:29;8.00;;;4.70;;
56399;SDS011;42298;53.638;9.876;2023-06-22T13:49:55;7.70;;;4.90;;
56399;SDS011;42298;53.638;9.876;2023-06-22T13:52:20;7.32;;;4.53;;
56399;SDS011;42298;53.638;9.876;2023-06-22T13:54:46;9.38;;;5.80;;
56399;SDS011;42298;53.638;9.876;2023-06-22T13:57:11;10.40;;;5.97;;
56399;SDS011;42298;53.638;9.876;2023-06-22T13:59:39;8.10;;;5.50;;
56399;SDS011;42298;53.638;9.876;2023-06-22T14:02:05;7.18;;;5.20;;
56399;SDS011;42298;53.638;9.876;2023-06-22T14:04:30;8.60;;;5.65;;
56399;SDS011;42298;53.638;9.876;2023-06-22T14:06:56;10.30;;;5.60;;
56399;SDS011;42298;53.638;9.876;2023-06-22T14:09:21;11.38;;;6.35;;
56399;SDS011;42298;53.638;9.876;2023-06-22T14:11:47;7.43;;;5.25;;
56399;SDS011;42298;53.638;9.876;2023-06-22T14:14:13;7.13;;;5.20;;
56399;SDS011;42298;53.638;9.876;2023-06-22T14:16:38;7.90;;;5.13;;
56399;SDS011;42298;53.638;9.876;2023-06-22T14:19:04;9.00;;;4.88;;
56399;SDS011;42298;53.638;9.876;2023-06-22T14:21:29;7.40;;;4.93;;
56399;SDS011;42298;53.638;9.876;2023-06-22T14:23:54;7.95;;;4.93;;
56399;SDS011;42298;53.638;9.876;2023-06-22T14:26:20;15.13;;;5.75;;
56399;SDS011;42298;53.638;9.876;2023-06-22T14:28:45;8.23;;;5.05;;
56399;SDS011;42298;53.638;9.876;2023-06-22T14:31:18;6.93;;;4.57;;
56399;SDS011;42298;53.638;9.876;2023-06-22T14:33:47;9.15;;;5.40;;
56399;SDS011;42298;53.638;9.876;2023-06-22T14:36:13;7.97;;;4.68;;
56399;SDS011;42298;53.638;9.876;2023-06-22T14:38:39;9.48;;;4.90;;
56399;SDS011;42298;53.638;9.876;2023-06-22T14:41:06;5.68;;;4.07;;
56399;SDS011;42298;53.638;9.876;2023-06-22T14:43:31;8.77;;;4.90;;
56399;SDS011;42298;53.638;9.876;2023-06-22T14:45:57;9.25;;;4.50;;
56399;SDS011;42298;53.638;9.876;2023-06-22T14:48:22;7.80;;;4.18;;